createdAt,value
2018-01-27T00:01:57.222Z,77.50
2018-01-27T00:04:30.786Z,77.30
2018-01-27T00:07:05.598Z,72.20
2018-01-27T00:09:39.291Z,72.20
2018-01-27T00:12:12.905Z,72.90
2018-01-27T00:14:46.569Z,71.20
2018-01-27T00:17:20.359Z,69.40
2018-01-27T00:19:56.628Z,67.00
2018-01-27T00:22:42.403Z,67.60
2018-01-27T00:25:17.889Z,68.30
2018-01-27T00:27:53.142Z,68.30
2018-01-27T00:30:26.920Z,66.80
2018-01-27T00:33:01.158Z,65.70
2018-01-27T00:35:35.001Z,65.10
2018-01-27T00:38:08.720Z,64.70
2018-01-27T00:40:42.477Z,65.10
2018-01-27T00:43:16.239Z,65.10
2018-01-27T00:45:49.975Z,65.10
2018-01-27T00:48:24.551Z,63.70
2018-01-27T00:50:58.234Z,64.00
2018-01-27T00:53:32.072Z,63.50
2018-01-27T00:56:05.780Z,62.90
2018-01-27T00:58:39.583Z,62.80
2018-01-27T01:01:13.506Z,62.80
2018-01-27T01:03:48.787Z,63.30
2018-01-27T01:06:24.084Z,63.40
2018-01-27T01:08:58.803Z,63.40
2018-01-27T01:11:32.561Z,63.50
2018-01-27T01:14:06.265Z,64.30
2018-01-27T01:16:39.980Z,65.10
2018-01-27T01:19:13.750Z,65.90
2018-01-27T01:21:47.495Z,66.80
2018-01-27T01:24:21.837Z,67.80
2018-01-27T01:26:55.651Z,68.90
2018-01-27T01:29:29.520Z,69.40
2018-01-27T01:32:03.327Z,70.60
2018-01-27T01:34:37.136Z,71.10
2018-01-27T01:37:10.928Z,71.40
2018-01-27T01:39:44.716Z,71.60
2018-01-27T01:42:24.745Z,71.20
2018-01-27T01:44:58.531Z,71.90
2018-01-27T01:47:32.376Z,72.30
2018-01-27T01:50:06.820Z,72.30
2018-01-27T01:52:40.463Z,73.70
2018-01-27T01:55:14.288Z,73.60
2018-01-27T01:57:47.877Z,74.40
2018-01-27T02:00:21.656Z,74.90
2018-01-27T02:02:55.400Z,75.00
2018-01-27T02:05:29.167Z,75.20
2018-01-27T02:08:02.933Z,75.60
2018-01-27T02:10:36.816Z,75.30
2018-01-27T02:13:10.683Z,76.00
2018-01-27T02:15:44.523Z,76.90
2018-01-27T02:18:18.276Z,75.60
2018-01-27T02:20:51.934Z,75.30
2018-01-27T02:23:25.600Z,75.90
2018-01-27T02:25:59.659Z,74.90
2018-01-27T02:28:34.082Z,74.60
2018-01-27T02:31:08.622Z,74.60
2018-01-27T02:33:42.305Z,73.40
2018-01-27T02:36:16.695Z,74.40
2018-01-27T02:38:50.568Z,75.10
2018-01-27T02:41:24.248Z,74.30
2018-01-27T02:43:58.887Z,72.50
2018-01-27T02:46:33.478Z,72.80
2018-01-27T02:49:07.253Z,73.40
2018-01-27T02:51:41.283Z,72.70
2018-01-27T02:54:15.069Z,73.30
2018-01-27T02:56:48.704Z,73.30
2018-01-27T02:59:22.422Z,71.90
2018-01-27T03:01:56.066Z,71.90
2018-01-27T03:04:29.812Z,72.20
2018-01-27T03:07:04.374Z,70.60
2018-01-27T03:09:38.758Z,70.60
2018-01-27T03:12:14.220Z,71.10
2018-01-27T03:14:47.915Z,71.00
2018-01-27T03:17:21.715Z,70.90
2018-01-27T03:19:55.589Z,70.30
2018-01-27T03:22:30.063Z,70.00
2018-01-27T03:25:04.256Z,69.60
2018-01-27T03:27:38.011Z,69.10
2018-01-27T03:30:13.040Z,69.10
2018-01-27T03:32:47.648Z,69.00
2018-01-27T03:35:22.290Z,68.70
2018-01-27T03:37:56.011Z,68.70
2018-01-27T03:40:29.835Z,67.90
2018-01-27T03:43:04.635Z,68.30
2018-01-27T03:45:39.747Z,67.10
2018-01-27T03:48:13.356Z,67.10
2018-01-27T03:50:47.093Z,66.80
2018-01-27T03:53:20.966Z,67.60
2018-01-27T03:55:55.409Z,67.60
2018-01-27T03:58:29.081Z,68.00
2018-01-27T04:01:03.889Z,68.80
2018-01-27T04:03:38.137Z,68.80
2018-01-27T04:06:12.806Z,69.40
2018-01-27T04:08:47.636Z,70.30
2018-01-27T04:11:21.405Z,71.40
2018-01-27T04:13:55.242Z,71.20
2018-01-27T04:16:30.118Z,71.60
2018-01-27T04:19:04.408Z,72.30
2018-01-27T04:21:39.254Z,73.20
2018-01-27T04:24:13.557Z,73.10
2018-01-27T04:26:48.379Z,73.20
2018-01-27T04:29:22.245Z,73.80
2018-01-27T04:31:56.748Z,73.40
2018-01-27T04:34:30.643Z,73.20
2018-01-27T04:37:05.388Z,73.30
2018-01-27T04:39:39.572Z,73.30
2018-01-27T04:42:14.335Z,73.50
2018-01-27T04:44:50.020Z,73.30
2018-01-27T04:47:24.275Z,73.00
2018-01-27T04:49:59.191Z,72.60
2018-01-27T04:52:33.406Z,73.40
2018-01-27T04:55:07.151Z,73.00
2018-01-27T04:57:41.807Z,73.40
2018-01-27T05:00:16.419Z,73.30
2018-01-27T05:02:50.298Z,73.70
2018-01-27T05:05:25.701Z,74.10
2018-01-27T05:08:00.485Z,74.00
2018-01-27T05:10:34.104Z,74.20
2018-01-27T05:13:08.189Z,75.00
2018-01-27T05:15:42.008Z,75.40
2018-01-27T05:18:15.765Z,75.70
2018-01-27T05:20:49.649Z,76.30
2018-01-27T05:23:23.655Z,77.00
2018-01-27T05:25:57.961Z,77.50
2018-01-27T05:28:31.640Z,77.50
2018-01-27T05:31:06.185Z,78.80
2018-01-27T05:33:40.009Z,78.80
2018-01-27T05:36:13.806Z,79.40
2018-01-27T05:38:47.580Z,80.50
2018-01-27T05:41:22.293Z,81.20
2018-01-27T05:43:57.638Z,82.20
2018-01-27T05:46:31.750Z,82.20
2018-01-27T05:49:06.040Z,83.50
2018-01-27T05:51:40.110Z,84.40
2018-01-27T05:54:13.855Z,85.30
2018-01-27T05:59:26.085Z,87.00
2018-01-27T06:01:59.692Z,87.50
2018-01-27T06:04:33.780Z,88.20
2018-01-27T06:07:08.888Z,89.20
2018-01-27T06:09:42.749Z,89.10
2018-01-27T06:12:16.605Z,89.80
2018-01-27T06:14:50.506Z,90.00
2018-01-27T06:17:24.305Z,90.00
2018-01-27T06:19:59.530Z,90.10
2018-01-27T06:22:33.750Z,89.60
2018-01-27T06:25:07.718Z,89.20
2018-01-27T06:27:44.557Z,89.20
2018-01-27T06:30:19.644Z,88.10
2018-01-27T06:32:53.275Z,87.70
2018-01-27T06:35:26.975Z,87.20
2018-01-27T06:38:00.622Z,87.00
2018-01-27T06:40:34.662Z,86.10
2018-01-27T06:43:10.615Z,85.40
2018-01-27T06:45:44.481Z,85.20
2018-01-27T06:48:18.106Z,85.10
2018-01-27T06:50:51.874Z,85.00
2018-01-27T06:53:25.670Z,84.60
2018-01-27T06:56:11.059Z,84.00
2018-01-27T06:58:44.793Z,83.30
2018-01-27T07:22:14.250Z,80.70
2018-01-27T07:24:49.004Z,81.80
2018-01-27T07:27:22.590Z,81.10
2018-01-27T07:29:58.028Z,81.20
2018-01-27T07:32:31.688Z,81.10
2018-01-27T07:35:06.021Z,81.20
2018-01-27T07:37:40.468Z,81.60
2018-01-27T07:40:14.911Z,81.20
2018-01-27T07:42:48.687Z,80.50
2018-01-27T07:45:22.251Z,80.10
2018-01-27T07:47:56.477Z,79.90
2018-01-27T07:50:30.492Z,79.50
2018-01-27T07:53:04.247Z,79.50
2018-01-27T07:55:37.991Z,79.30
2018-01-27T07:58:11.709Z,78.90
2018-01-27T08:00:45.828Z,78.70
2018-01-27T08:03:19.684Z,78.50
2018-01-27T08:05:54.963Z,78.00
2018-01-27T08:08:28.998Z,77.30
2018-01-27T08:11:03.620Z,77.10
2018-01-27T08:13:38.295Z,76.90
2018-01-27T08:16:13.739Z,76.60
2018-01-27T08:18:47.409Z,76.60
2018-01-27T08:21:21.237Z,76.20
2018-01-27T08:23:55.061Z,76.10
2018-01-27T08:26:28.865Z,76.00
2018-01-27T08:29:02.956Z,76.30
2018-01-27T08:31:37.876Z,75.60
2018-01-27T08:34:12.327Z,75.90
2018-01-27T08:36:47.613Z,75.60
2018-01-27T08:39:21.375Z,75.00
2018-01-27T08:41:55.460Z,74.70
2018-01-27T08:44:29.191Z,74.70
2018-01-27T08:47:02.811Z,74.80
2018-01-27T08:49:36.600Z,75.30
2018-01-27T08:52:12.764Z,73.40
2018-01-27T08:54:46.920Z,73.40
2018-01-27T08:57:21.429Z,73.50
2018-01-27T08:59:55.033Z,72.70
2018-01-27T09:02:28.859Z,72.10
2018-01-27T09:05:03.090Z,71.80
2018-01-27T09:07:36.732Z,72.00
2018-01-27T09:10:10.408Z,72.00
2018-01-27T09:12:44.859Z,72.90
2018-01-27T09:15:18.676Z,72.80
2018-01-27T09:17:52.447Z,72.50
2018-01-27T09:20:27.021Z,72.90
2018-01-27T09:23:03.033Z,72.60
2018-01-27T09:25:36.728Z,71.90
2018-01-27T09:28:10.576Z,71.60
2018-01-27T09:30:45.916Z,71.90
2018-01-27T09:33:19.654Z,71.90
2018-01-27T09:35:53.399Z,72.30
2018-01-27T09:38:27.835Z,71.90
2018-01-27T09:41:01.490Z,71.80
2018-01-27T09:43:35.248Z,71.20
2018-01-27T09:46:08.850Z,70.70
2018-01-27T09:48:43.589Z,70.00
2018-01-27T09:51:17.252Z,70.00
2018-01-27T09:53:50.888Z,70.20
2018-01-27T09:56:25.552Z,69.70
2018-01-27T09:58:59.184Z,69.60
2018-01-27T10:01:32.994Z,70.00
2018-01-27T10:04:06.755Z,68.30
2018-01-27T10:06:40.641Z,67.30
2018-01-27T10:09:15.236Z,66.00
2018-01-27T10:11:49.278Z,66.00
2018-01-27T10:14:22.843Z,65.50
2018-01-27T10:16:56.554Z,65.60
2018-01-27T10:19:31.045Z,65.60
2018-01-27T10:22:04.844Z,65.60
2018-01-27T10:24:38.703Z,65.60
2018-01-27T10:27:12.393Z,65.70
2018-01-27T10:29:47.563Z,64.70
2018-01-27T10:32:21.460Z,64.70
2018-01-27T10:34:55.211Z,63.60
2018-01-27T10:37:29.931Z,61.80
2018-01-27T10:40:03.740Z,59.80
2018-01-27T10:42:38.331Z,60.10
2018-01-27T10:45:12.016Z,60.10
2018-01-27T10:47:47.006Z,61.10
2018-01-27T10:50:21.708Z,62.30
2018-01-27T10:52:56.445Z,63.50
2018-01-27T10:55:30.328Z,63.50
2018-01-27T10:58:04.129Z,63.60
2018-01-27T11:00:38.207Z,63.50
2018-01-27T11:03:12.880Z,63.90
2018-01-27T11:05:46.570Z,63.40
2018-01-27T11:08:20.358Z,64.00
2018-01-27T11:10:55.703Z,63.50
2018-01-27T11:13:30.389Z,63.30
2018-01-27T11:16:04.990Z,62.60
2018-01-27T11:18:40.225Z,60.60
2018-01-27T11:21:14.957Z,60.70
2018-01-27T11:23:48.737Z,60.10
2018-01-27T11:26:22.465Z,59.20
2018-01-27T11:28:57.078Z,59.00
2018-01-27T11:31:31.589Z,56.70
2018-01-27T11:34:05.249Z,56.70
2018-01-27T11:36:40.057Z,56.10
2018-01-27T11:39:14.631Z,55.40
2018-01-27T11:41:48.429Z,55.00
2018-01-27T11:44:22.729Z,53.50
2018-01-27T11:46:56.647Z,52.80
2018-01-27T11:49:30.461Z,51.40
2018-01-27T11:52:05.728Z,51.00
2018-01-27T11:54:39.363Z,50.00
2018-01-27T11:57:13.117Z,49.10
2018-01-27T11:59:47.111Z,47.80
2018-01-27T12:02:20.832Z,48.30
2018-01-27T12:04:54.652Z,48.10
2018-01-27T12:07:28.340Z,49.40
2018-01-27T12:10:03.287Z,49.80
2018-01-27T12:12:37.191Z,49.90
2018-01-27T12:15:12.368Z,50.70
2018-01-27T12:17:47.598Z,49.40
2018-01-27T12:20:22.279Z,49.40
2018-01-27T12:22:56.083Z,49.50
2018-01-27T12:25:29.777Z,49.20
2018-01-27T12:28:05.215Z,47.50
2018-01-27T12:30:39.044Z,47.40
2018-01-27T12:33:12.727Z,48.50
2018-01-27T12:35:47.762Z,49.40
2018-01-27T12:38:21.455Z,48.10
2018-01-27T12:40:57.859Z,47.20
2018-01-27T12:43:32.366Z,47.90
2018-01-27T12:46:07.321Z,47.70
2018-01-27T12:48:41.461Z,46.50
2018-01-27T12:51:17.652Z,46.00
2018-01-27T12:53:51.897Z,46.00
2018-01-27T12:56:25.599Z,46.60
2018-01-27T12:58:59.347Z,47.10
2018-01-27T13:01:33.025Z,47.00
2018-01-27T13:04:06.672Z,45.70
2018-01-27T13:06:40.252Z,46.10
2018-01-27T13:09:14.043Z,45.80
2018-01-27T13:11:48.418Z,46.20
2018-01-27T13:14:22.062Z,45.50
2018-01-27T13:16:55.864Z,44.40
2018-01-27T13:19:29.419Z,44.60
2018-01-27T13:22:03.974Z,44.80
2018-01-27T13:24:40.509Z,45.40
2018-01-27T13:27:14.152Z,45.70
2018-01-27T13:29:48.768Z,44.80
2018-01-27T13:32:23.649Z,44.20
2018-01-27T13:34:57.485Z,44.00
2018-01-27T13:37:32.585Z,45.00
2018-01-27T13:40:06.916Z,44.40
2018-01-27T13:42:41.736Z,44.20
2018-01-27T13:45:15.871Z,44.00
2018-01-27T13:47:50.360Z,43.10
2018-01-27T13:50:24.249Z,43.30
2018-01-27T13:52:58.196Z,43.10
2018-01-27T13:55:31.854Z,42.90
2018-01-27T13:58:06.787Z,41.80
2018-01-27T14:00:40.594Z,42.20
2018-01-27T14:03:14.420Z,41.90
2018-01-27T14:05:48.892Z,41.50
2018-01-27T14:08:25.963Z,41.90
2018-01-27T14:11:00.488Z,42.30
2018-01-27T14:13:35.737Z,43.00
2018-01-27T14:16:10.758Z,43.00
2018-01-27T14:18:47.987Z,43.40
2018-01-27T14:21:23.540Z,43.10
2018-01-27T14:23:57.508Z,43.20
2018-01-27T14:26:33.978Z,43.10
2018-01-27T14:29:07.785Z,43.90
2018-01-27T14:31:41.540Z,42.80
2018-01-27T14:34:15.312Z,43.60
2018-01-27T14:36:49.074Z,44.50
2018-01-27T14:39:23.016Z,44.40
2018-01-27T14:41:57.736Z,45.10
2018-01-27T14:44:33.840Z,44.90
2018-01-27T14:47:08.336Z,45.30
2018-01-27T14:49:42.839Z,45.00
2018-01-27T14:52:17.018Z,45.40
2018-01-27T14:54:51.446Z,45.20
2018-01-27T14:57:27.477Z,43.60
2018-01-27T15:00:03.341Z,35.20
2018-01-27T15:02:36.996Z,35.20
2018-01-27T15:05:11.520Z,29.40
2018-01-27T15:07:45.403Z,29.40
2018-01-27T15:10:19.378Z,31.30
2018-01-27T15:12:54.201Z,33.20
2018-01-27T15:15:29.131Z,34.90
2018-01-27T15:18:03.768Z,37.90
2018-01-27T15:20:38.291Z,40.00
2018-01-27T15:23:12.042Z,40.00
2018-01-27T15:25:45.780Z,40.10
2018-01-27T15:28:19.783Z,39.60
2018-01-27T15:30:53.485Z,36.70
2018-01-27T15:33:28.064Z,38.20
2018-01-27T15:36:03.103Z,40.40
2018-01-27T15:38:37.881Z,40.30
2018-01-27T15:41:11.690Z,41.10
2018-01-27T15:43:51.351Z,42.10
2018-01-27T15:46:25.724Z,43.10
2018-01-27T15:48:59.643Z,43.10
2018-01-27T15:51:34.204Z,43.70
2018-01-27T15:54:11.020Z,44.70
2018-01-27T15:56:45.340Z,45.60
2018-01-27T15:59:20.580Z,46.70
2018-01-27T16:01:55.571Z,47.10
2018-01-27T16:04:30.429Z,48.20
2018-01-27T16:07:04.912Z,49.50
2018-01-27T16:09:39.871Z,49.50
2018-01-27T16:12:15.335Z,50.50
2018-01-27T16:17:55.772Z,52.30
2018-01-27T16:20:32.738Z,53.50
2018-01-27T16:23:07.595Z,54.20
2018-01-27T16:25:41.590Z,55.20
2018-01-27T16:28:16.010Z,55.90
2018-01-27T16:30:50.197Z,56.70
2018-01-27T16:33:24.144Z,57.90
2018-01-27T16:35:59.080Z,58.10
2018-01-27T16:38:36.573Z,58.00
2018-01-27T16:41:11.792Z,58.70
2018-01-27T16:43:47.762Z,58.50
2018-01-27T16:46:22.169Z,59.60
2018-01-27T16:48:55.841Z,59.60
2018-01-27T16:51:32.889Z,59.90
2018-01-27T16:54:09.283Z,61.00
2018-01-27T16:56:44.780Z,61.40
2018-01-27T16:59:18.680Z,61.40
2018-01-27T17:01:52.336Z,62.50
2018-01-27T17:04:27.854Z,63.20
2018-01-27T17:07:03.688Z,64.30
2018-01-27T17:09:40.899Z,64.30
2018-01-27T17:12:17.664Z,65.70
2018-01-27T17:14:53.612Z,65.70
2018-01-27T17:17:29.009Z,66.20
2018-01-27T17:20:04.289Z,67.20
2018-01-27T17:22:45.187Z,67.80
2018-01-27T17:28:02.139Z,68.30
2018-01-27T17:30:36.771Z,68.80
2018-01-27T17:33:11.790Z,69.40
2018-01-27T17:35:45.852Z,69.60
2018-01-27T17:41:06.725Z,70.30
2018-01-27T17:43:43.240Z,70.30
2018-01-27T17:46:21.245Z,70.70
2018-01-27T17:48:58.217Z,70.50
2018-01-27T17:51:33.817Z,70.10
2018-01-27T17:54:10.056Z,69.70
2018-01-27T17:56:47.616Z,69.50
2018-01-27T17:59:23.281Z,69.60
2018-01-27T18:01:58.316Z,70.40
2018-01-27T18:04:34.407Z,70.40
2018-01-27T18:07:08.339Z,69.80
2018-01-27T18:09:46.206Z,70.40
2018-01-27T18:12:22.135Z,70.10
2018-01-27T18:14:57.138Z,70.10
2018-01-27T18:17:31.430Z,70.00
2018-01-27T18:20:06.948Z,70.00
2018-01-27T18:22:43.633Z,70.40
2018-01-27T18:25:19.786Z,70.00
2018-01-27T18:27:54.089Z,70.30
2018-01-27T18:30:29.873Z,69.20
2018-01-27T18:35:59.947Z,68.30
2018-01-27T18:38:34.448Z,67.50
2018-01-27T18:41:09.956Z,66.60
2018-01-27T18:43:46.868Z,66.20
2018-01-27T18:46:23.349Z,65.90
2018-01-27T18:49:02.808Z,65.60
2018-01-27T18:51:50.393Z,65.30
2018-01-27T18:54:25.106Z,65.00
2018-01-27T18:56:59.017Z,64.40
2018-01-27T18:59:38.490Z,64.10
2018-01-27T19:02:15.376Z,64.10
2018-01-27T19:07:27.665Z,63.70
2018-01-27T19:10:03.341Z,62.60
2018-01-27T19:12:37.225Z,62.30
2018-01-27T19:15:12.392Z,61.60
2018-01-27T19:17:46.134Z,61.00
2018-01-27T19:20:22.637Z,60.30
2018-01-27T19:22:57.953Z,59.70
2018-01-27T19:25:35.283Z,59.60
2018-01-27T19:28:09.144Z,59.40
2018-01-27T19:30:44.130Z,59.00
2018-01-27T19:33:17.986Z,59.00
2018-01-27T19:35:59.860Z,59.00
2018-01-27T19:38:36.304Z,58.70
2018-01-27T19:41:10.877Z,59.00
2018-01-27T19:43:46.375Z,59.00
2018-01-27T19:49:01.139Z,58.70
2018-01-27T19:54:18.214Z,58.30
2018-01-27T19:59:34.974Z,58.40
2018-01-27T20:02:12.911Z,58.80
2018-01-27T20:04:51.720Z,58.10
2018-01-27T20:07:26.696Z,57.60
2018-01-27T20:10:01.937Z,58.20
2018-01-27T20:12:35.766Z,58.20
2018-01-27T20:17:51.031Z,58.20
2018-01-27T20:20:25.364Z,58.20
2018-01-27T20:22:59.125Z,58.30
2018-01-27T20:25:34.697Z,58.00
2018-01-27T20:28:12.378Z,57.40
2018-01-27T20:30:50.150Z,57.80
2018-01-27T20:33:24.479Z,57.60
2018-01-27T20:36:02.379Z,57.10
2018-01-27T20:38:36.340Z,57.20
2018-01-27T20:41:11.619Z,56.90
2018-01-27T20:43:46.554Z,56.50
2018-01-27T20:46:21.895Z,55.90
2018-01-27T20:48:55.698Z,56.00
2018-01-27T20:51:29.482Z,56.00
2018-01-27T20:54:03.301Z,54.90
2018-01-27T20:56:38.767Z,54.30
2018-01-27T20:59:12.693Z,53.80
2018-01-27T21:01:55.430Z,52.70
2018-01-27T21:04:32.869Z,53.00
2018-01-27T21:07:09.569Z,51.80
2018-01-27T21:12:22.759Z,52.00
2018-01-27T21:14:57.674Z,51.70
2018-01-27T21:17:31.396Z,51.80
2018-01-27T21:20:08.492Z,51.70
2018-01-27T21:25:22.520Z,51.30
2018-01-27T21:27:58.014Z,51.40
2018-01-27T21:30:32.143Z,51.10
2018-01-27T21:33:07.927Z,51.10
2018-01-27T21:35:45.418Z,50.50
2018-01-27T21:41:01.129Z,49.70
2018-01-27T21:43:35.422Z,49.60
2018-01-27T21:46:09.138Z,50.00
2018-01-27T21:48:42.988Z,49.30
2018-01-27T21:53:55.405Z,48.70
2018-01-27T21:56:29.589Z,48.80
2018-01-27T21:59:05.880Z,48.60
2018-01-27T22:01:39.969Z,48.00
2018-01-27T22:04:14.012Z,47.90
2018-01-27T22:06:48.690Z,47.90
2018-01-27T22:09:25.424Z,47.90
2018-01-27T22:14:38.114Z,47.90
2018-01-27T22:19:54.095Z,47.10
2018-01-27T22:22:33.427Z,46.70
2018-01-27T22:27:47.688Z,46.10
2018-01-27T22:35:47.046Z,43.90
2018-01-27T22:38:21.264Z,43.80
2018-01-27T22:40:56.895Z,43.60
2018-01-27T22:43:31.661Z,42.70
2018-01-27T22:46:05.490Z,43.20
2018-01-27T22:48:40.163Z,44.50
2018-01-27T22:51:15.669Z,45.60
2018-01-27T22:53:51.951Z,47.20
2018-01-27T22:56:27.500Z,48.20
2018-01-27T22:59:01.347Z,48.80
2018-01-27T23:01:35.426Z,51.60
2018-01-27T23:04:09.953Z,53.50
2018-01-27T23:06:44.348Z,53.90
2018-01-27T23:09:18.680Z,53.80
2018-01-27T23:11:53.010Z,54.60
2018-01-27T23:14:27.574Z,56.20
2018-01-27T23:17:02.770Z,56.20
2018-01-27T23:19:36.589Z,54.10
2018-01-27T23:22:10.317Z,53.60
2018-01-27T23:24:46.046Z,54.40
2018-01-27T23:27:19.979Z,54.00
2018-01-27T23:29:53.921Z,54.10
2018-01-27T23:35:17.950Z,55.50
2018-01-27T23:37:52.488Z,53.40
2018-01-27T23:40:26.264Z,54.70
2018-01-27T23:43:00.100Z,52.90
2018-01-27T23:45:35.354Z,53.80
2018-01-27T23:48:10.706Z,51.80
2018-01-27T23:50:44.739Z,50.20
2018-01-27T23:53:23.130Z,50.90
2018-01-27T23:55:57.681Z,50.10
2018-01-27T23:58:31.970Z,49.50
